aviador You're here:

KRID Decoded Metar

in
Report Time2017-09-24 01:15:00
UTC Time2017-09-24 01:32:11
Flight Rules vfr VFR
Wind100° at 03 kt
W.Decomp.*RWY 06: 2.3 kt HW 1.9 kt RCW
RWY 15: 1.9 kt HW 2.3 kt LCW
W.Rank100° ranks 20
Current wind is below 100° avg. (6.9)
Visibility9999 m
Phenomena:N/A
Clouds:N/A
Expected CloudBase > 1,600 ft AGL from Temp-Dew spread
CeilingNone
Temp21°C
Dew Point17°C (78% RH)
QNH1020 hPa
Raw Report
METAR KRID 240115Z AUTO 10003KT 10SM CLR 21/17 A3011 RMK AO2=

Extra information for KRID:More info

Social comments